Fujimo — WDF6919 — position and weather

sailwx.info

Track history (hours):
 
Tides and Currents Weather Stations Pressure Air Temp Water Temp Dewpoint Dewpoint Depression Visibility Wind Speed Wind Dir Waves Ship Positions

Fujimo

Owner: SKOCZYLAS, ANDRZEJ, POLAND 05-092, DE. More information available from US FCC via Universal Licensing System and Coast Guard Vessel Documentation Center.

Last reported at 2017-Sep-26 09:30 UTC. Time now 2017-Sep-26 09:35 UTC.
Position N 27°48' W 082°28'.

Length 15 m.

Type: Sailing vessel. MMSI: 367479190.

Date/timePositionNaut miles runAvg speedWind from/ knotsBaromVisibWave heightAir tempDewpointWater temp
2017-Sep-26 09:30N 27°48' W 082°28'3 5.9
2017-Sep-26 09:00N 27°50' W 082°27'3 6.4
2017-Sep-26 08:31N 27°53' W 082°26'1 2.9
2017-Sep-26 08:01N 27°54' W 082°25'2 3.2
2017-Sep-26 07:31N 27°56' W 082°26'0 0.0
2017-Sep-26 07:00N 27°56' W 082°26'0 0.0
2017-Sep-26 06:30N 27°56' W 082°26'0 0.0
2017-Sep-26 06:00N 27°56' W 082°26'0 0.0
2017-Sep-26 05:30N 27°56' W 082°26'0 0.0
2017-Sep-26 05:00N 27°56' W 082°26'0 0.0
2017-Sep-26 04:30N 27°56' W 082°26'0 0.0
2017-Sep-26 04:00N 27°56' W 082°26'0 0.0
2017-Sep-26 03:30N 27°56' W 082°26'0 0.0
2017-Sep-26 03:00N 27°56' W 082°26'0 0.0
2017-Sep-26 02:30N 27°56' W 082°26'0 0.0
2017-Sep-26 02:00N 27°56' W 082°26'0 0.0
2017-Sep-26 01:30N 27°56' W 082°26'0 0.0
2017-Sep-26 01:00N 27°56' W 082°26'0 0.0
2017-Sep-26 00:30N 27°56' W 082°26'0 0.0
2017-Sep-26 00:00N 27°56' W 082°26'0 0.0
2017-Sep-25 23:30N 27°56' W 082°26'0 0.0
2017-Sep-25 23:00N 27°56' W 082°26'0 0.0
2017-Sep-25 22:30N 27°56' W 082°26'0 0.0
2017-Sep-25 22:00N 27°56' W 082°26'0 0.0
2017-Sep-25 21:30N 27°56' W 082°26'0 0.0
2017-Sep-25 21:00N 27°56' W 082°26'0 0.0
2017-Sep-25 20:30N 27°56' W 082°26'0 0.0
2017-Sep-25 20:00N 27°56' W 082°26'0 0.0
2017-Sep-25 19:30N 27°56' W 082°26'0 0.0
2017-Sep-25 19:00N 27°56' W 082°26'0 0.0
2017-Sep-25 18:30N 27°56' W 082°26'0 0.0
2017-Sep-25 18:00N 27°56' W 082°26'0 0.0
2017-Sep-25 17:30N 27°56' W 082°26'0 0.0
2017-Sep-25 17:00N 27°56' W 082°26'0 0.0
2017-Sep-25 16:30N 27°56' W 082°26'0 0.0
2017-Sep-25 16:00N 27°56' W 082°26'1 2.9
2017-Sep-25 15:30N 27°54' W 082°26'1 1.7
2017-Sep-25 15:00N 27°55' W 082°27'2 4.1
2017-Sep-25 14:31N 27°57' W 082°27'0 0.1
2017-Sep-25 14:00N 27°57' W 082°27'0 0.0
2017-Sep-25 13:30N 27°57' W 082°27'0 0.0
2017-Sep-25 13:00N 27°57' W 082°27'0 0.0
2017-Sep-25 12:30N 27°57' W 082°27'0 0.1
2017-Sep-25 12:00N 27°57' W 082°27'3 5.0
2017-Sep-25 11:30N 27°54' W 082°26'1 1.4
2017-Sep-25 11:00N 27°54' W 082°25'2 3.2
2017-Sep-25 10:31N 27°56' W 082°26'0 0.2
2017-Sep-25 10:00N 27°56' W 082°26'0 0.0
2017-Sep-25 09:30N 27°56' W 082°26'0 0.0
2017-Sep-25 09:00N 27°56' W 082°26'0 0.0
2017-Sep-25 08:30N 27°56' W 082°26'0 0.0
2017-Sep-25 08:00N 27°56' W 082°26'0 0.0
2017-Sep-25 07:30N 27°56' W 082°26'0 0.0
2017-Sep-25 07:00N 27°56' W 082°26'0 0.0
2017-Sep-25 06:30N 27°56' W 082°26'0 0.0
2017-Sep-25 06:00N 27°56' W 082°26'0 0.0
2017-Sep-25 05:30N 27°56' W 082°26'0 0.0
2017-Sep-25 05:00N 27°56' W 082°26'0 0.0
2017-Sep-25 04:30N 27°56' W 082°26'0 0.0
2017-Sep-25 04:00N 27°56' W 082°26'0 0.0
2017-Sep-25 03:30N 27°56' W 082°26'0 0.0
2017-Sep-25 03:00N 27°56' W 082°26'0 0.0
2017-Sep-25 02:30N 27°56' W 082°26'0 0.0
2017-Sep-25 02:00N 27°56' W 082°26'0 0.0
2017-Sep-25 01:30N 27°56' W 082°26'0 0.0
2017-Sep-25 01:00N 27°56' W 082°26'0 0.0
2017-Sep-25 00:30N 27°56' W 082°26'0 0.0
2017-Sep-25 00:00N 27°56' W 082°26'0 0.0
2017-Sep-24 23:30N 27°56' W 082°26'0 0.0
2017-Sep-24 23:00N 27°56' W 082°26'0 0.0
2017-Sep-24 22:30N 27°56' W 082°26'0 0.0
2017-Sep-24 22:00N 27°56' W 082°26'0 0.0
2017-Sep-24 21:30N 27°56' W 082°26'0 0.0
2017-Sep-24 21:00N 27°56' W 082°26'0 0.0
2017-Sep-24 20:30N 27°56' W 082°26'0 0.0
2017-Sep-24 20:00N 27°56' W 082°26'0 0.0
2017-Sep-24 19:30N 27°56' W 082°26'0 0.0
2017-Sep-24 19:00N 27°56' W 082°26'0 0.0
2017-Sep-24 18:30N 27°56' W 082°26'0 0.0
2017-Sep-24 18:00N 27°56' W 082°26'0 0.0
2017-Sep-24 17:30N 27°56' W 082°26'0 0.0
2017-Sep-24 17:00N 27°56' W 082°26'0 0.0
2017-Sep-24 16:30N 27°56' W 082°26'0 0.0
2017-Sep-24 16:00N 27°56' W 082°26'483910016.8
2017-Sep-24 15:31N 54°27' E 018°46'0 8.8
2017-Sep-24 15:30N 54°27' E 018°46'48398709512.5
2017-Sep-24 15:30N 27°56' W 082°26'0 0.0
2017-Sep-24 15:00N 27°56' W 082°26'483832493.9
2017-Sep-24 14:51N 54°32' E 018°47'483813790.0
2017-Sep-24 14:30N 27°56' W 082°26'0 0.0
2017-Sep-24 14:00N 27°56' W 082°26'0 0.0
2017-Sep-24 13:30N 27°56' W 082°26'0 0.0
2017-Sep-24 13:00N 27°56' W 082°26'0 0.0
2017-Sep-24 12:30N 27°56' W 082°26'0 0.0
2017-Sep-24 12:00N 27°56' W 082°26'0 0.0
2017-Sep-24 11:30N 27°56' W 082°26'483515824.4
2017-Sep-24 11:12N 54°35' E 018°44'483524866.9
2017-Sep-24 11:00N 27°56' W 082°26'4835828817.9
2017-Sep-24 11:00N 54°34' E 018°43'48359783.7
2017-Sep-24 10:30N 27°56' W 082°26'4834362572.1
2017-Sep-24 10:30N 54°30' E 018°41'48349933.5
2017-Sep-24 10:00N 27°56' W 082°26'48341087612.2
2017-Sep-24 10:00N 54°27' E 018°40'48349748.9
2017-Sep-24 09:30N 27°56' W 082°26'48311449299.6
2017-Sep-24 09:30N 54°28' E 018°36'48319732.3
2017-Sep-24 09:00N 27°56' W 082°26'0 0.0
2017-Sep-24 08:30N 27°56' W 082°26'0 0.0
2017-Sep-24 08:00N 27°56' W 082°26'0 0.0
2017-Sep-24 07:30N 27°56' W 082°26'0 0.0
2017-Sep-24 07:00N 27°56' W 082°26'0 0.0
2017-Sep-24 06:30N 27°56' W 082°26'0 0.0
2017-Sep-24 06:00N 27°56' W 082°26'0 0.0
2017-Sep-24 05:30N 27°56' W 082°26'0 0.0
2017-Sep-24 05:00N 27°56' W 082°26'0 0.0
2017-Sep-24 04:30N 27°56' W 082°26'0 0.0
2017-Sep-24 04:00N 27°56' W 082°26'0 0.0
2017-Sep-24 03:30N 27°56' W 082°26'0 0.0
2017-Sep-24 03:00N 27°56' W 082°26'0 0.0
2017-Sep-24 02:30N 27°56' W 082°26'0 0.0
2017-Sep-24 02:00N 27°56' W 082°26'0 0.0
2017-Sep-24 01:30N 27°56' W 082°26'0 0.0
2017-Sep-24 01:00N 27°56' W 082°26'0 0.0
2017-Sep-24 00:30N 27°56' W 082°26'0 0.0
2017-Sep-24 00:00N 27°56' W 082°26'0 0.0
2017-Sep-23 23:30N 27°56' W 082°26'0 0.0
2017-Sep-23 23:00N 27°56' W 082°26'0 0.0
2017-Sep-23 22:30N 27°56' W 082°26'0 0.0
2017-Sep-23 22:00N 27°56' W 082°26'0 0.0
2017-Sep-23 21:30N 27°56' W 082°26'0 0.0
2017-Sep-23 21:00N 27°56' W 082°26'0 0.0
2017-Sep-23 20:30N 27°56' W 082°26'0 0.0
2017-Sep-23 20:00N 27°56' W 082°26'0 0.0
2017-Sep-22 02:00N 27°56' W 082°26'0 0.0
2017-Sep-22 01:30N 27°56' W 082°26'0 0.0
2017-Sep-22 01:00N 27°56' W 082°26'0 0.0
2017-Sep-22 00:30N 27°56' W 082°26'0 0.0
2017-Sep-22 00:00N 27°56' W 082°26'0 0.0
2017-Sep-21 23:30N 27°56' W 082°26'0 0.0
2017-Sep-21 23:00N 27°56' W 082°26'0 0.0
2017-Sep-21 22:30N 27°56' W 082°26'0 0.0
2017-Sep-21 22:00N 27°56' W 082°26'0 0.0
2017-Sep-21 21:30N 27°56' W 082°26'0 0.0
2017-Sep-21 21:00N 27°56' W 082°26'0 0.0
2017-Sep-21 20:30N 27°56' W 082°26'0 0.0
2017-Sep-21 20:00N 27°56' W 082°26'0 0.0
2017-Sep-21 19:30N 27°56' W 082°26'0 0.0
2017-Sep-21 19:00N 27°56' W 082°26'0 0.0
2017-Sep-21 18:30N 27°56' W 082°26'0 0.0
2017-Sep-21 18:00N 27°56' W 082°26'0 0.0
2017-Sep-21 17:30N 27°56' W 082°26'0 0.0
2017-Sep-21 17:00N 27°56' W 082°26'0 0.0
2017-Sep-21 16:30N 27°56' W 082°26'0 0.0
2017-Sep-21 16:00N 27°56' W 082°26'0 0.0
2017-Sep-21 15:30N 27°56' W 082°26'0 0.0
2017-Sep-21 15:00N 27°56' W 082°26'0 0.0
2017-Sep-21 14:30N 27°56' W 082°26'0 0.0
2017-Sep-21 14:00N 27°56' W 082°26'0 0.0
2017-Sep-21 13:30N 27°56' W 082°26'0 0.0
2017-Sep-21 13:00N 27°56' W 082°26'0 0.0
2017-Sep-21 12:30N 27°56' W 082°26'0 0.0
2017-Sep-21 12:00N 27°56' W 082°26'0 0.0
2017-Sep-21 11:30N 27°56' W 082°26'0 0.0
2017-Sep-21 11:00N 27°56' W 082°26'0 0.0
2017-Sep-21 10:30N 27°56' W 082°26'0 0.0
2017-Sep-21 10:00N 27°56' W 082°26'0 0.0
2017-Sep-21 09:30N 27°56' W 082°26'0 0.0
2017-Sep-21 09:00N 27°56' W 082°26'0 0.0
2017-Sep-21 08:30N 27°56' W 082°26'0 0.0
2017-Sep-21 08:00N 27°56' W 082°26'0 0.0
2017-Sep-21 07:30N 27°56' W 082°26'0 0.0
2017-Sep-21 07:00N 27°56' W 082°26'0 0.0
2017-Sep-21 06:30N 27°56' W 082°26'0 0.0
2017-Sep-21 06:00N 27°56' W 082°26'0 0.0
2017-Sep-21 05:30N 27°56' W 082°26'0 0.0
2017-Sep-21 05:00N 27°56' W 082°26'0 0.0
2017-Sep-21 04:30N 27°56' W 082°26'0 0.0
2017-Sep-21 04:00N 27°56' W 082°26'0 0.0
2017-Sep-21 03:30N 27°56' W 082°26'0 0.0
2017-Sep-21 03:00N 27°56' W 082°26'0 0.0
2017-Sep-21 02:30N 27°56' W 082°26'0 0.0
2017-Sep-21 02:00N 27°56' W 082°26'0 0.0
2017-Sep-21 01:30N 27°56' W 082°26'0 0.0
2017-Sep-21 01:00N 27°56' W 082°26'0 0.0
2017-Sep-21 00:30N 27°56' W 082°26'0 0.0
2017-Sep-21 00:00N 27°56' W 082°26'0 0.0
2017-Sep-20 23:30N 27°56' W 082°26'0 0.0
2017-Sep-20 23:00N 27°56' W 082°26'0 0.0
2017-Sep-20 22:30N 27°56' W 082°26'0 0.0
2017-Sep-20 22:00N 27°56' W 082°26'0 0.0
2017-Sep-20 21:30N 27°56' W 082°26'0 0.0
2017-Sep-20 21:00N 27°56' W 082°26'0 0.0
2017-Sep-20 20:30N 27°56' W 082°26'0 0.0
2017-Sep-20 20:00N 27°56' W 082°26'0 0.0
2017-Sep-20 19:30N 27°56' W 082°26'0 0.0
2017-Sep-20 19:00N 27°56' W 082°26'0 0.0
2017-Sep-20 18:30N 27°56' W 082°26'0 0.0
2017-Sep-20 18:00N 27°56' W 082°26'0 0.0
2017-Sep-20 17:30N 27°56' W 082°26'0 0.0
2017-Sep-20 17:00N 27°56' W 082°26'0 0.0
2017-Sep-20 16:30N 27°56' W 082°26'0 0.0
2017-Sep-20 16:00N 27°56' W 082°26'0 0.0
2017-Sep-20 15:30N 27°56' W 082°26'0 0.0
2017-Sep-20 15:00N 27°56' W 082°26'0 0.0
2017-Sep-20 14:00N 27°56' W 082°26'0 0.0
2017-Sep-20 13:30N 27°56' W 082°26'0 0.0
2017-Sep-20 13:00N 27°56' W 082°26'0 0.0
2017-Sep-20 12:30N 27°56' W 082°26'0 0.0
2017-Sep-20 12:00N 27°56' W 082°26'0 0.0
2017-Sep-20 11:30N 27°56' W 082°26'0 0.0
2017-Sep-20 11:00N 27°56' W 082°26'0 0.0
2017-Sep-20 10:30N 27°56' W 082°26'0 0.0
2017-Sep-20 10:00N 27°56' W 082°26'0 0.0
2017-Sep-20 09:30N 27°56' W 082°26'0 0.0
2017-Sep-20 09:00N 27°56' W 082°26'0 0.0
2017-Sep-20 08:30N 27°56' W 082°26'0 0.0
2017-Sep-20 08:00N 27°56' W 082°26'0 0.0
2017-Sep-20 07:30N 27°56' W 082°26'0 0.0
2017-Sep-20 07:00N 27°56' W 082°26'0 0.0
2017-Sep-20 06:30N 27°56' W 082°26'0 0.0
2017-Sep-20 06:00N 27°56' W 082°26'0 0.0
2017-Sep-20 05:30N 27°56' W 082°26'0 0.0
2017-Sep-20 05:00N 27°56' W 082°26'0 0.0
2017-Sep-20 04:30N 27°56' W 082°26'0 0.0
2017-Sep-20 04:00N 27°56' W 082°26'0 0.0
2017-Sep-20 03:30N 27°56' W 082°26'0 0.0
2017-Sep-20 03:00N 27°56' W 082°26'0 0.0
2017-Sep-20 02:30N 27°56' W 082°26'0 0.0
2017-Sep-20 02:00N 27°56' W 082°26'0 0.0
2017-Sep-20 01:30N 27°56' W 082°26'0 0.0
2017-Sep-20 01:00N 27°56' W 082°26'0 0.0
2017-Sep-20 00:30N 27°56' W 082°26'0 0.0
2017-Sep-20 00:00N 27°56' W 082°26'0 0.0
2017-Sep-19 23:30N 27°56' W 082°26'0 0.0
2017-Sep-19 23:00N 27°56' W 082°26'0 0.0
2017-Sep-19 22:30N 27°56' W 082°26'0 0.0
2017-Sep-19 22:00N 27°56' W 082°26'0 0.0
2017-Sep-19 21:30N 27°56' W 082°26'0 0.0
2017-Sep-19 21:00N 27°56' W 082°26'0 0.0
2017-Sep-19 20:30N 27°56' W 082°26'0 0.0
2017-Sep-19 20:00N 27°56' W 082°26'0 0.0
2017-Sep-19 19:30N 27°56' W 082°26'0 0.0
2017-Sep-19 19:00N 27°56' W 082°26'0 0.0
2017-Sep-19 18:30N 27°56' W 082°26'0 0.0
2017-Sep-19 18:00N 27°56' W 082°26'0 0.0
2017-Sep-19 17:30N 27°56' W 082°26'0 0.0
2017-Sep-19 17:00N 27°56' W 082°26'0 0.0
2017-Sep-19 16:30N 27°56' W 082°26'2 3.2
2017-Sep-19 16:00N 27°54' W 082°26'2 4.8
2017-Sep-19 15:30N 27°57' W 082°27'2 3.6
2017-Sep-19 15:00N 27°55' W 082°27'1 2.4
2017-Sep-19 14:30N 27°56' W 082°26'0 0.0
2017-Sep-19 14:00N 27°56' W 082°26'0 0.0
2017-Sep-19 13:31N 27°56' W 082°26'0 0.0
2017-Sep-19 13:01N 27°56' W 082°26'0 0.0
2017-Sep-19 12:31N 27°56' W 082°26'0 0.0
2017-Sep-19 12:01N 27°56' W 082°26'0 0.0
2017-Sep-19 11:31N 27°56' W 082°26'0 0.0
2017-Sep-19 11:01N 27°56' W 082°26'0 0.0
2017-Sep-19 10:31N 27°56' W 082°26'0 0.0
2017-Sep-19 10:00N 27°56' W 082°26'0 0.0
2017-Sep-19 09:31N 27°56' W 082°26'0 0.0
2017-Sep-19 09:01N 27°56' W 082°26'0 0.0
2017-Sep-19 08:31N 27°56' W 082°26'0 0.0
2017-Sep-19 08:01N 27°56' W 082°26'0 0.0
2017-Sep-19 07:31N 27°56' W 082°26'0 0.0
2017-Sep-19 07:01N 27°56' W 082°26'0 0.0
2017-Sep-19 06:31N 27°56' W 082°26'0 0.0
2017-Sep-19 06:01N 27°56' W 082°26'0 0.0
2017-Sep-19 05:30N 27°56' W 082°26'0 0.0
2017-Sep-19 05:01N 27°56' W 082°26'0 0.0
2017-Sep-19 04:31N 27°56' W 082°26'0 0.0
2017-Sep-19 04:01N 27°56' W 082°26'0 0.0
2017-Sep-19 03:30N 27°56' W 082°26'0 0.0
2017-Sep-19 03:01N 27°56' W 082°26'0 0.0
2017-Sep-19 02:31N 27°56' W 082°26'0 0.0
2017-Sep-19 02:01N 27°56' W 082°26'0 0.0
2017-Sep-19 01:31N 27°56' W 082°26'0 0.0
2017-Sep-19 01:01N 27°56' W 082°26'0 0.0
2017-Sep-19 00:31N 27°56' W 082°26'0 0.0
2017-Sep-19 00:01N 27°56' W 082°26'0 0.0
2017-Sep-18 23:31N 27°56' W 082°26'0 0.0
2017-Sep-18 23:01N 27°56' W 082°26'0 0.0
2017-Sep-18 22:31N 27°56' W 082°26'0 0.0
2017-Sep-18 22:01N 27°56' W 082°26'0 0.0
2017-Sep-18 21:31N 27°56' W 082°26'0 0.0
2017-Sep-18 21:01N 27°56' W 082°26'0 0.0
2017-Sep-18 20:30N 27°56' W 082°26'0 0.0
2017-Sep-18 20:01N 27°56' W 082°26'0 0.0
2017-Sep-18 19:31N 27°56' W 082°26'0 0.0
2017-Sep-18 19:00N 27°56' W 082°26'0 0.0
2017-Sep-18 18:31N 27°56' W 082°26'0 0.0
2017-Sep-18 18:01N 27°56' W 082°26'0 0.0
2017-Sep-18 17:31N 27°56' W 082°26'0 0.0
2017-Sep-18 17:00N 27°56' W 082°26'0 0.0
2017-Sep-18 16:31N 27°56' W 082°26'0 0.0
2017-Sep-18 16:00N 27°56' W 082°26'0 0.0
2017-Sep-18 15:31N 27°56' W 082°26'0 0.0
2017-Sep-18 15:01N 27°56' W 082°26'0 0.0
2017-Sep-18 14:31N 27°56' W 082°26'0 0.0
2017-Sep-18 14:01N 27°56' W 082°26'0 0.0
2017-Sep-18 13:31N 27°56' W 082°26'0 0.0
2017-Sep-18 13:00N 27°56' W 082°26'0 0.0
2017-Sep-18 12:31N 27°56' W 082°26'0 0.0
2017-Sep-18 12:01N 27°56' W 082°26'0 0.0
2017-Sep-18 11:31N 27°56' W 082°26'0 0.0
2017-Sep-18 11:00N 27°56' W 082°26'0 0.0
2017-Sep-18 10:31N 27°56' W 082°26'0 0.0
2017-Sep-18 10:01N 27°56' W 082°26'0 0.0
2017-Sep-18 09:31N 27°56' W 082°26'0 0.0
2017-Sep-18 09:01N 27°56' W 082°26'0 0.0
2017-Sep-18 08:30N 27°56' W 082°26'0 0.0
2017-Sep-18 08:01N 27°56' W 082°26'0 0.0
2017-Sep-18 07:30N 27°56' W 082°26'0 0.0
2017-Sep-18 07:01N 27°56' W 082°26'0 0.0
2017-Sep-18 06:31N 27°56' W 082°26'0 0.0
2017-Sep-18 06:01N 27°56' W 082°26'0 0.0
2017-Sep-18 05:31N 27°56' W 082°26'0 0.0
2017-Sep-18 05:00N 27°56' W 082°26'0 0.0
2017-Sep-18 04:30N 27°56' W 082°26'0 0.0
2017-Sep-18 04:00N 27°56' W 082°26'0 0.0
2017-Sep-18 03:31N 27°56' W 082°26'0 0.0
2017-Sep-18 03:01N 27°56' W 082°26'0 0.0
2017-Sep-18 02:31N 27°56' W 082°26'0 0.0
2017-Sep-18 02:01N 27°56' W 082°26'0 0.0
2017-Sep-18 01:31N 27°56' W 082°26'0 0.0
2017-Sep-18 01:01N 27°56' W 082°26'0 0.0
2017-Sep-18 00:31N 27°56' W 082°26'0 0.0
2017-Sep-18 00:00N 27°56' W 082°26'0 0.0
2017-Sep-17 23:31N 27°56' W 082°26'0 0.0
2017-Sep-17 23:01N 27°56' W 082°26'0 0.0
2017-Sep-17 22:31N 27°56' W 082°26'0 0.0
2017-Sep-17 22:01N 27°56' W 082°26'0 0.0
2017-Sep-17 21:30N 27°56' W 082°26'0 0.0
2017-Sep-17 21:00N 27°56' W 082°26'0 0.0
2017-Sep-17 20:31N 27°56' W 082°26'0 0.0
2017-Sep-17 20:01N 27°56' W 082°26'0 0.0
2017-Sep-17 19:31N 27°56' W 082°26'0 0.0
2017-Sep-17 19:01N 27°56' W 082°26'0 0.0
2017-Sep-17 18:31N 27°56' W 082°26'0 0.0
2017-Sep-17 18:01N 27°56' W 082°26'0 0.0
2017-Sep-17 17:31N 27°56' W 082°26'0 0.0
2017-Sep-17 17:00N 27°56' W 082°26'0 0.0
2017-Sep-17 16:31N 27°56' W 082°26'0 0.1
2017-Sep-17 16:00N 27°56' W 082°26'0 0.1
2017-Sep-17 15:30N 27°56' W 082°26'1 3.0
2017-Sep-17 15:00N 27°54' W 082°26'1 1.1
2017-Sep-17 14:30N 27°54' W 082°25'0 0.0
2017-Sep-17 14:00N 27°54' W 082°25'0 0.0
2017-Sep-17 13:30N 27°54' W 082°25'0 0.0
2017-Sep-17 13:00N 27°54' W 082°25'0 0.1
2017-Sep-17 12:30N 27°54' W 082°25'1 1.5
2017-Sep-17 12:00N 27°54' W 082°26'1 2.5
2017-Sep-17 11:30N 27°56' W 082°26'0 0.0
2017-Sep-17 11:01N 27°56' W 082°26'0 0.0
2017-Sep-17 10:30N 27°56' W 082°26'0 0.0
2017-Sep-17 10:00N 27°56' W 082°26'0 0.0
2017-Sep-17 09:31N 27°56' W 082°26'0 0.0
2017-Sep-17 09:01N 27°56' W 082°26'0 0.0
2017-Sep-17 08:31N 27°56' W 082°26'0 0.0
2017-Sep-17 08:01N 27°56' W 082°26'0 0.0
2017-Sep-17 07:30N 27°56' W 082°26'0 0.0
2017-Sep-17 07:00N 27°56' W 082°26'0 0.0
2017-Sep-17 06:30N 27°56' W 082°26'0 0.0
2017-Sep-17 06:00N 27°56' W 082°26'0 0.0
2017-Sep-17 05:30N 27°56' W 082°26'1 1.1
2017-Sep-17 05:00N 27°55' W 082°26'1 1.9
2017-Sep-17 04:30N 27°54' W 082°26'1 1.6
2017-Sep-17 03:55N 27°55' W 082°26'0 0.0
2017-Sep-17 03:28N 27°55' W 082°26'0 0.0
2017-Sep-17 02:58N 27°55' W 082°26'0 0.0
2017-Sep-17 02:28N 27°55' W 082°26'0 0.0
2017-Sep-17 01:58N 27°55' W 082°26'0 0.0
2017-Sep-17 01:31N 27°55' W 082°26'0 0.0
2017-Sep-17 01:00N 27°55' W 082°26'1 1.7
2017-Sep-17 00:31N 27°54' W 082°26'1 1.2
2017-Sep-17 00:00N 27°54' W 082°25'0 0.0
2017-Sep-16 23:30N 27°54' W 082°25'0 0.0
2017-Sep-16 23:01N 27°54' W 082°25'0 0.0
2017-Sep-16 22:30N 27°54' W 082°25'0 0.0
2017-Sep-16 22:01N 27°54' W 082°25'2 3.3
2017-Sep-16 21:30N 27°56' W 082°26'0 0.0
2017-Sep-16 21:00N 27°56' W 082°26'0 0.0
2017-Sep-16 20:30N 27°56' W 082°26'0 0.0
2017-Sep-16 20:00N 27°56' W 082°26'0 0.0
2017-Sep-16 19:30N 27°56' W 082°26'0 0.0
2017-Sep-16 19:00N 27°56' W 082°26'0 0.0
2017-Sep-16 18:30N 27°56' W 082°26'0 0.0
2017-Sep-16 18:00N 27°56' W 082°26'2 3.3
2017-Sep-16 17:30N 27°54' W 082°25'2 4.0
2017-Sep-16 17:00N 27°55' W 082°27'1 2.9
2017-Sep-16 16:30N 27°57' W 082°27'0 0.0
2017-Sep-16 16:00N 27°57' W 082°27'0 0.0
2017-Sep-16 15:30N 27°57' W 082°27'0 0.0
2017-Sep-16 15:00N 27°57' W 082°27'0 0.1
2017-Sep-16 14:30N 27°57' W 082°27'1 1.6
2017-Sep-16 14:00N 27°56' W 082°27'2 4.0
2017-Sep-16 13:30N 27°54' W 082°26'1 1.4
2017-Sep-16 13:00N 27°54' W 082°25'2 3.1
2017-Sep-16 12:30N 27°56' W 082°26'0 0.0
2017-Sep-16 12:00N 27°56' W 082°26'0 0.0
2017-Sep-16 11:30N 27°56' W 082°26'0 0.0
2017-Sep-16 11:01N 27°56' W 082°26'0 0.0
2017-Sep-16 10:30N 27°56' W 082°26'0 0.0
2017-Sep-16 10:00N 27°56' W 082°26'0 0.0
2017-Sep-16 09:31N 27°56' W 082°26'  
Track history (hours):
 
Tides and Currents Weather Stations Pressure Air Temp Water Temp Dewpoint Dewpoint Depression Visibility Wind Speed Wind Dir Waves Ship Positions

Fujimo

Owner: SKOCZYLAS, ANDRZEJ, POLAND 05-092, DE. More information available from US FCC via Universal Licensing System and Coast Guard Vessel Documentation Center.

Last reported at 2017-Sep-26 09:30 UTC. Time now 2017-Sep-26 09:35 UTC.
Position N 27°48' W 082°28'.

Length 15 m.

Type: Sailing vessel. MMSI: 367479190.

Date/timePositionNaut miles runAvg speedWind from/ knotsBaromVisibWave heightAir tempDewpointWater temp
2017-Sep-26 09:30N 27°48' W 082°28'3 5.9
2017-Sep-26 09:00N 27°50' W 082°27'3 6.4
2017-Sep-26 08:31N 27°53' W 082°26'1 2.9
2017-Sep-26 08:01N 27°54' W 082°25'2 3.2
2017-Sep-26 07:31N 27°56' W 082°26'0 0.0
2017-Sep-26 07:00N 27°56' W 082°26'0 0.0
2017-Sep-26 06:30N 27°56' W 082°26'0 0.0
2017-Sep-26 06:00N 27°56' W 082°26'0 0.0
2017-Sep-26 05:30N 27°56' W 082°26'0 0.0
2017-Sep-26 05:00N 27°56' W 082°26'0 0.0
2017-Sep-26 04:30N 27°56' W 082°26'0 0.0
2017-Sep-26 04:00N 27°56' W 082°26'0 0.0
2017-Sep-26 03:30N 27°56' W 082°26'0 0.0
2017-Sep-26 03:00N 27°56' W 082°26'0 0.0
2017-Sep-26 02:30N 27°56' W 082°26'0 0.0
2017-Sep-26 02:00N 27°56' W 082°26'0 0.0
2017-Sep-26 01:30N 27°56' W 082°26'0 0.0
2017-Sep-26 01:00N 27°56' W 082°26'0 0.0
2017-Sep-26 00:30N 27°56' W 082°26'0 0.0
2017-Sep-26 00:00N 27°56' W 082°26'0 0.0
2017-Sep-25 23:30N 27°56' W 082°26'0 0.0
2017-Sep-25 23:00N 27°56' W 082°26'0 0.0
2017-Sep-25 22:30N 27°56' W 082°26'0 0.0
2017-Sep-25 22:00N 27°56' W 082°26'0 0.0
2017-Sep-25 21:30N 27°56' W 082°26'0 0.0
2017-Sep-25 21:00N 27°56' W 082°26'0 0.0
2017-Sep-25 20:30N 27°56' W 082°26'0 0.0
2017-Sep-25 20:00N 27°56' W 082°26'0 0.0
2017-Sep-25 19:30N 27°56' W 082°26'0 0.0
2017-Sep-25 19:00N 27°56' W 082°26'0 0.0
2017-Sep-25 18:30N 27°56' W 082°26'0 0.0
2017-Sep-25 18:00N 27°56' W 082°26'0 0.0
2017-Sep-25 17:30N 27°56' W 082°26'0 0.0
2017-Sep-25 17:00N 27°56' W 082°26'0 0.0
2017-Sep-25 16:30N 27°56' W 082°26'0 0.0
2017-Sep-25 16:00N 27°56' W 082°26'1 2.9
2017-Sep-25 15:30N 27°54' W 082°26'1 1.7
2017-Sep-25 15:00N 27°55' W 082°27'2 4.1
2017-Sep-25 14:31N 27°57' W 082°27'0 0.1
2017-Sep-25 14:00N 27°57' W 082°27'0 0.0
2017-Sep-25 13:30N 27°57' W 082°27'0 0.0
2017-Sep-25 13:00N 27°57' W 082°27'0 0.0
2017-Sep-25 12:30N 27°57' W 082°27'0 0.1
2017-Sep-25 12:00N 27°57' W 082°27'3 5.0
2017-Sep-25 11:30N 27°54' W 082°26'1 1.4
2017-Sep-25 11:00N 27°54' W 082°25'2 3.2
2017-Sep-25 10:31N 27°56' W 082°26'0 0.2
2017-Sep-25 10:00N 27°56' W 082°26'0 0.0
2017-Sep-25 09:30N 27°56' W 082°26'0 0.0
2017-Sep-25 09:00N 27°56' W 082°26'0 0.0
2017-Sep-25 08:30N 27°56' W 082°26'0 0.0
2017-Sep-25 08:00N 27°56' W 082°26'0 0.0
2017-Sep-25 07:30N 27°56' W 082°26'0 0.0
2017-Sep-25 07:00N 27°56' W 082°26'0 0.0
2017-Sep-25 06:30N 27°56' W 082°26'0 0.0
2017-Sep-25 06:00N 27°56' W 082°26'0 0.0
2017-Sep-25 05:30N 27°56' W 082°26'0 0.0
2017-Sep-25 05:00N 27°56' W 082°26'0 0.0
2017-Sep-25 04:30N 27°56' W 082°26'0 0.0
2017-Sep-25 04:00N 27°56' W 082°26'0 0.0
2017-Sep-25 03:30N 27°56' W 082°26'0 0.0
2017-Sep-25 03:00N 27°56' W 082°26'0 0.0
2017-Sep-25 02:30N 27°56' W 082°26'0 0.0
2017-Sep-25 02:00N 27°56' W 082°26'0 0.0
2017-Sep-25 01:30N 27°56' W 082°26'0 0.0
2017-Sep-25 01:00N 27°56' W 082°26'0 0.0
2017-Sep-25 00:30N 27°56' W 082°26'0 0.0
2017-Sep-25 00:00N 27°56' W 082°26'0 0.0
2017-Sep-24 23:30N 27°56' W 082°26'0 0.0
2017-Sep-24 23:00N 27°56' W 082°26'0 0.0
2017-Sep-24 22:30N 27°56' W 082°26'0 0.0
2017-Sep-24 22:00N 27°56' W 082°26'0 0.0
2017-Sep-24 21:30N 27°56' W 082°26'0 0.0
2017-Sep-24 21:00N 27°56' W 082°26'0 0.0
2017-Sep-24 20:30N 27°56' W 082°26'0 0.0
2017-Sep-24 20:00N 27°56' W 082°26'0 0.0
2017-Sep-24 19:30N 27°56' W 082°26'0 0.0
2017-Sep-24 19:00N 27°56' W 082°26'0 0.0
2017-Sep-24 18:30N 27°56' W 082°26'0 0.0
2017-Sep-24 18:00N 27°56' W 082°26'0 0.0
2017-Sep-24 17:30N 27°56' W 082°26'0 0.0
2017-Sep-24 17:00N 27°56' W 082°26'0 0.0
2017-Sep-24 16:30N 27°56' W 082°26'0 0.0
2017-Sep-24 16:00N 27°56' W 082°26'483910016.8
2017-Sep-24 15:31N 54°27' E 018°46'0 8.8
2017-Sep-24 15:30N 54°27' E 018°46'48398709512.5
2017-Sep-24 15:30N 27°56' W 082°26'0 0.0
2017-Sep-24 15:00N 27°56' W 082°26'483832493.9
2017-Sep-24 14:51N 54°32' E 018°47'483813790.0
2017-Sep-24 14:30N 27°56' W 082°26'0 0.0
2017-Sep-24 14:00N 27°56' W 082°26'0 0.0
2017-Sep-24 13:30N 27°56' W 082°26'0 0.0
2017-Sep-24 13:00N 27°56' W 082°26'0 0.0
2017-Sep-24 12:30N 27°56' W 082°26'0 0.0
2017-Sep-24 12:00N 27°56' W 082°26'0 0.0
2017-Sep-24 11:30N 27°56' W 082°26'483515824.4
2017-Sep-24 11:12N 54°35' E 018°44'483524866.9
2017-Sep-24 11:00N 27°56' W 082°26'4835828817.9
2017-Sep-24 11:00N 54°34' E 018°43'48359783.7
2017-Sep-24 10:30N 27°56' W 082°26'4834362572.1
2017-Sep-24 10:30N 54°30' E 018°41'48349933.5
2017-Sep-24 10:00N 27°56' W 082°26'48341087612.2
2017-Sep-24 10:00N 54°27' E 018°40'48349748.9
2017-Sep-24 09:30N 27°56' W 082°26'48311449299.6
2017-Sep-24 09:30N 54°28' E 018°36'48319732.3
2017-Sep-24 09:00N 27°56' W 082°26'0 0.0
2017-Sep-24 08:30N 27°56' W 082°26'0 0.0
2017-Sep-24 08:00N 27°56' W 082°26'0 0.0
2017-Sep-24 07:30N 27°56' W 082°26'0 0.0
2017-Sep-24 07:00N 27°56' W 082°26'0 0.0
2017-Sep-24 06:30N 27°56' W 082°26'0 0.0
2017-Sep-24 06:00N 27°56' W 082°26'0 0.0
2017-Sep-24 05:30N 27°56' W 082°26'0 0.0
2017-Sep-24 05:00N 27°56' W 082°26'0 0.0
2017-Sep-24 04:30N 27°56' W 082°26'0 0.0
2017-Sep-24 04:00N 27°56' W 082°26'0 0.0
2017-Sep-24 03:30N 27°56' W 082°26'0 0.0
2017-Sep-24 03:00N 27°56' W 082°26'0 0.0
2017-Sep-24 02:30N 27°56' W 082°26'0 0.0
2017-Sep-24 02:00N 27°56' W 082°26'0 0.0
2017-Sep-24 01:30N 27°56' W 082°26'0 0.0
2017-Sep-24 01:00N 27°56' W 082°26'0 0.0
2017-Sep-24 00:30N 27°56' W 082°26'0 0.0
2017-Sep-24 00:00N 27°56' W 082°26'0 0.0
2017-Sep-23 23:30N 27°56' W 082°26'0 0.0
2017-Sep-23 23:00N 27°56' W 082°26'0 0.0
2017-Sep-23 22:30N 27°56' W 082°26'0 0.0
2017-Sep-23 22:00N 27°56' W 082°26'0 0.0
2017-Sep-23 21:30N 27°56' W 082°26'0 0.0
2017-Sep-23 21:00N 27°56' W 082°26'0 0.0
2017-Sep-23 20:30N 27°56' W 082°26'0 0.0
2017-Sep-23 20:00N 27°56' W 082°26'0 0.0
2017-Sep-22 02:00N 27°56' W 082°26'0 0.0
2017-Sep-22 01:30N 27°56' W 082°26'0 0.0
2017-Sep-22 01:00N 27°56' W 082°26'0 0.0
2017-Sep-22 00:30N 27°56' W 082°26'0 0.0
2017-Sep-22 00:00N 27°56' W 082°26'0 0.0
2017-Sep-21 23:30N 27°56' W 082°26'0 0.0
2017-Sep-21 23:00N 27°56' W 082°26'0 0.0
2017-Sep-21 22:30N 27°56' W 082°26'0 0.0
2017-Sep-21 22:00N 27°56' W 082°26'0 0.0
2017-Sep-21 21:30N 27°56' W 082°26'0 0.0
2017-Sep-21 21:00N 27°56' W 082°26'0 0.0
2017-Sep-21 20:30N 27°56' W 082°26'0 0.0
2017-Sep-21 20:00N 27°56' W 082°26'0 0.0
2017-Sep-21 19:30N 27°56' W 082°26'0 0.0
2017-Sep-21 19:00N 27°56' W 082°26'0 0.0
2017-Sep-21 18:30N 27°56' W 082°26'0 0.0
2017-Sep-21 18:00N 27°56' W 082°26'0 0.0
2017-Sep-21 17:30N 27°56' W 082°26'0 0.0
2017-Sep-21 17:00N 27°56' W 082°26'0 0.0
2017-Sep-21 16:30N 27°56' W 082°26'0 0.0
2017-Sep-21 16:00N 27°56' W 082°26'0 0.0
2017-Sep-21 15:30N 27°56' W 082°26'0 0.0
2017-Sep-21 15:00N 27°56' W 082°26'0 0.0
2017-Sep-21 14:30N 27°56' W 082°26'0 0.0
2017-Sep-21 14:00N 27°56' W 082°26'0 0.0
2017-Sep-21 13:30N 27°56' W 082°26'0 0.0
2017-Sep-21 13:00N 27°56' W 082°26'0 0.0
2017-Sep-21 12:30N 27°56' W 082°26'0 0.0
2017-Sep-21 12:00N 27°56' W 082°26'0 0.0
2017-Sep-21 11:30N 27°56' W 082°26'0 0.0
2017-Sep-21 11:00N 27°56' W 082°26'0 0.0
2017-Sep-21 10:30N 27°56' W 082°26'0 0.0
2017-Sep-21 10:00N 27°56' W 082°26'0 0.0
2017-Sep-21 09:30N 27°56' W 082°26'0 0.0
2017-Sep-21 09:00N 27°56' W 082°26'0 0.0
2017-Sep-21 08:30N 27°56' W 082°26'0 0.0
2017-Sep-21 08:00N 27°56' W 082°26'0 0.0
2017-Sep-21 07:30N 27°56' W 082°26'0 0.0
2017-Sep-21 07:00N 27°56' W 082°26'0 0.0
2017-Sep-21 06:30N 27°56' W 082°26'0 0.0
2017-Sep-21 06:00N 27°56' W 082°26'0 0.0
2017-Sep-21 05:30N 27°56' W 082°26'0 0.0
2017-Sep-21 05:00N 27°56' W 082°26'0 0.0
2017-Sep-21 04:30N 27°56' W 082°26'0 0.0
2017-Sep-21 04:00N 27°56' W 082°26'0 0.0
2017-Sep-21 03:30N 27°56' W 082°26'0 0.0
2017-Sep-21 03:00N 27°56' W 082°26'0 0.0
2017-Sep-21 02:30N 27°56' W 082°26'0 0.0
2017-Sep-21 02:00N 27°56' W 082°26'0 0.0
2017-Sep-21 01:30N 27°56' W 082°26'0 0.0
2017-Sep-21 01:00N 27°56' W 082°26'0 0.0
2017-Sep-21 00:30N 27°56' W 082°26'0 0.0
2017-Sep-21 00:00N 27°56' W 082°26'0 0.0
2017-Sep-20 23:30N 27°56' W 082°26'0 0.0
2017-Sep-20 23:00N 27°56' W 082°26'0 0.0
2017-Sep-20 22:30N 27°56' W 082°26'0 0.0
2017-Sep-20 22:00N 27°56' W 082°26'0 0.0
2017-Sep-20 21:30N 27°56' W 082°26'0 0.0
2017-Sep-20 21:00N 27°56' W 082°26'0 0.0
2017-Sep-20 20:30N 27°56' W 082°26'0 0.0
2017-Sep-20 20:00N 27°56' W 082°26'0 0.0
2017-Sep-20 19:30N 27°56' W 082°26'0 0.0
2017-Sep-20 19:00N 27°56' W 082°26'0 0.0
2017-Sep-20 18:30N 27°56' W 082°26'0 0.0
2017-Sep-20 18:00N 27°56' W 082°26'0 0.0
2017-Sep-20 17:30N 27°56' W 082°26'0 0.0
2017-Sep-20 17:00N 27°56' W 082°26'0 0.0
2017-Sep-20 16:30N 27°56' W 082°26'0 0.0
2017-Sep-20 16:00N 27°56' W 082°26'0 0.0
2017-Sep-20 15:30N 27°56' W 082°26'0 0.0
2017-Sep-20 15:00N 27°56' W 082°26'0 0.0
2017-Sep-20 14:00N 27°56' W 082°26'0 0.0
2017-Sep-20 13:30N 27°56' W 082°26'0 0.0
2017-Sep-20 13:00N 27°56' W 082°26'0 0.0
2017-Sep-20 12:30N 27°56' W 082°26'0 0.0
2017-Sep-20 12:00N 27°56' W 082°26'0 0.0
2017-Sep-20 11:30N 27°56' W 082°26'0 0.0
2017-Sep-20 11:00N 27°56' W 082°26'0 0.0
2017-Sep-20 10:30N 27°56' W 082°26'0 0.0
2017-Sep-20 10:00N 27°56' W 082°26'0 0.0
2017-Sep-20 09:30N 27°56' W 082°26'0 0.0
2017-Sep-20 09:00N 27°56' W 082°26'0 0.0
2017-Sep-20 08:30N 27°56' W 082°26'0 0.0
2017-Sep-20 08:00N 27°56' W 082°26'0 0.0
2017-Sep-20 07:30N 27°56' W 082°26'0 0.0
2017-Sep-20 07:00N 27°56' W 082°26'0 0.0
2017-Sep-20 06:30N 27°56' W 082°26'0 0.0
2017-Sep-20 06:00N 27°56' W 082°26'0 0.0
2017-Sep-20 05:30N 27°56' W 082°26'0 0.0
2017-Sep-20 05:00N 27°56' W 082°26'0 0.0
2017-Sep-20 04:30N 27°56' W 082°26'0 0.0
2017-Sep-20 04:00N 27°56' W 082°26'0 0.0
2017-Sep-20 03:30N 27°56' W 082°26'0 0.0
2017-Sep-20 03:00N 27°56' W 082°26'0 0.0
2017-Sep-20 02:30N 27°56' W 082°26'0 0.0
2017-Sep-20 02:00N 27°56' W 082°26'0 0.0
2017-Sep-20 01:30N 27°56' W 082°26'0 0.0
2017-Sep-20 01:00N 27°56' W 082°26'0 0.0
2017-Sep-20 00:30N 27°56' W 082°26'0 0.0
2017-Sep-20 00:00N 27°56' W 082°26'0 0.0
2017-Sep-19 23:30N 27°56' W 082°26'0 0.0
2017-Sep-19 23:00N 27°56' W 082°26'0 0.0
2017-Sep-19 22:30N 27°56' W 082°26'0 0.0
2017-Sep-19 22:00N 27°56' W 082°26'0 0.0
2017-Sep-19 21:30N 27°56' W 082°26'0 0.0
2017-Sep-19 21:00N 27°56' W 082°26'0 0.0
2017-Sep-19 20:30N 27°56' W 082°26'0 0.0
2017-Sep-19 20:00N 27°56' W 082°26'0 0.0
2017-Sep-19 19:30N 27°56' W 082°26'0 0.0
2017-Sep-19 19:00N 27°56' W 082°26'0 0.0
2017-Sep-19 18:30N 27°56' W 082°26'0 0.0
2017-Sep-19 18:00N 27°56' W 082°26'0 0.0
2017-Sep-19 17:30N 27°56' W 082°26'0 0.0
2017-Sep-19 17:00N 27°56' W 082°26'0 0.0
2017-Sep-19 16:30N 27°56' W 082°26'2 3.2
2017-Sep-19 16:00N 27°54' W 082°26'2 4.8
2017-Sep-19 15:30N 27°57' W 082°27'2 3.6
2017-Sep-19 15:00N 27°55' W 082°27'1 2.4
2017-Sep-19 14:30N 27°56' W 082°26'0 0.0
2017-Sep-19 14:00N 27°56' W 082°26'0 0.0
2017-Sep-19 13:31N 27°56' W 082°26'0 0.0
2017-Sep-19 13:01N 27°56' W 082°26'0 0.0
2017-Sep-19 12:31N 27°56' W 082°26'0 0.0
2017-Sep-19 12:01N 27°56' W 082°26'0 0.0
2017-Sep-19 11:31N 27°56' W 082°26'0 0.0
2017-Sep-19 11:01N 27°56' W 082°26'0 0.0
2017-Sep-19 10:31N 27°56' W 082°26'0 0.0
2017-Sep-19 10:00N 27°56' W 082°26'0 0.0
2017-Sep-19 09:31N 27°56' W 082°26'0 0.0
2017-Sep-19 09:01N 27°56' W 082°26'0 0.0
2017-Sep-19 08:31N 27°56' W 082°26'0 0.0
2017-Sep-19 08:01N 27°56' W 082°26'0 0.0
2017-Sep-19 07:31N 27°56' W 082°26'0 0.0
2017-Sep-19 07:01N 27°56' W 082°26'0 0.0
2017-Sep-19 06:31N 27°56' W 082°26'0 0.0
2017-Sep-19 06:01N 27°56' W 082°26'0 0.0
2017-Sep-19 05:30N 27°56' W 082°26'0 0.0
2017-Sep-19 05:01N 27°56' W 082°26'0 0.0
2017-Sep-19 04:31N 27°56' W 082°26'0 0.0
2017-Sep-19 04:01N 27°56' W 082°26'0 0.0
2017-Sep-19 03:30N 27°56' W 082°26'0 0.0
2017-Sep-19 03:01N 27°56' W 082°26'0 0.0
2017-Sep-19 02:31N 27°56' W 082°26'0 0.0
2017-Sep-19 02:01N 27°56' W 082°26'0 0.0
2017-Sep-19 01:31N 27°56' W 082°26'0 0.0
2017-Sep-19 01:01N 27°56' W 082°26'0 0.0
2017-Sep-19 00:31N 27°56' W 082°26'0 0.0
2017-Sep-19 00:01N 27°56' W 082°26'0 0.0
2017-Sep-18 23:31N 27°56' W 082°26'0 0.0
2017-Sep-18 23:01N 27°56' W 082°26'0 0.0
2017-Sep-18 22:31N 27°56' W 082°26'0 0.0
2017-Sep-18 22:01N 27°56' W 082°26'0 0.0
2017-Sep-18 21:31N 27°56' W 082°26'0 0.0
2017-Sep-18 21:01N 27°56' W 082°26'0 0.0
2017-Sep-18 20:30N 27°56' W 082°26'0 0.0
2017-Sep-18 20:01N 27°56' W 082°26'0 0.0
2017-Sep-18 19:31N 27°56' W 082°26'0 0.0
2017-Sep-18 19:00N 27°56' W 082°26'0 0.0
2017-Sep-18 18:31N 27°56' W 082°26'0 0.0
2017-Sep-18 18:01N 27°56' W 082°26'0 0.0
2017-Sep-18 17:31N 27°56' W 082°26'0 0.0
2017-Sep-18 17:00N 27°56' W 082°26'0 0.0
2017-Sep-18 16:31N 27°56' W 082°26'0 0.0
2017-Sep-18 16:00N 27°56' W 082°26'0 0.0
2017-Sep-18 15:31N 27°56' W 082°26'0 0.0
2017-Sep-18 15:01N 27°56' W 082°26'0 0.0
2017-Sep-18 14:31N 27°56' W 082°26'0 0.0
2017-Sep-18 14:01N 27°56' W 082°26'0 0.0
2017-Sep-18 13:31N 27°56' W 082°26'0 0.0
2017-Sep-18 13:00N 27°56' W 082°26'0 0.0
2017-Sep-18 12:31N 27°56' W 082°26'0 0.0
2017-Sep-18 12:01N 27°56' W 082°26'0 0.0
2017-Sep-18 11:31N 27°56' W 082°26'0 0.0
2017-Sep-18 11:00N 27°56' W 082°26'0 0.0
2017-Sep-18 10:31N 27°56' W 082°26'0 0.0
2017-Sep-18 10:01N 27°56' W 082°26'0 0.0
2017-Sep-18 09:31N 27°56' W 082°26'0 0.0
2017-Sep-18 09:01N 27°56' W 082°26'0 0.0
2017-Sep-18 08:30N 27°56' W 082°26'0 0.0
2017-Sep-18 08:01N 27°56' W 082°26'0 0.0
2017-Sep-18 07:30N 27°56' W 082°26'0 0.0
2017-Sep-18 07:01N 27°56' W 082°26'0 0.0
2017-Sep-18 06:31N 27°56' W 082°26'0 0.0
2017-Sep-18 06:01N 27°56' W 082°26'0 0.0
2017-Sep-18 05:31N 27°56' W 082°26'0 0.0
2017-Sep-18 05:00N 27°56' W 082°26'0 0.0
2017-Sep-18 04:30N 27°56' W 082°26'0 0.0
2017-Sep-18 04:00N 27°56' W 082°26'0 0.0
2017-Sep-18 03:31N 27°56' W 082°26'0 0.0
2017-Sep-18 03:01N 27°56' W 082°26'0 0.0
2017-Sep-18 02:31N 27°56' W 082°26'0 0.0
2017-Sep-18 02:01N 27°56' W 082°26'0 0.0
2017-Sep-18 01:31N 27°56' W 082°26'0 0.0
2017-Sep-18 01:01N 27°56' W 082°26'0 0.0
2017-Sep-18 00:31N 27°56' W 082°26'0 0.0
2017-Sep-18 00:00N 27°56' W 082°26'0 0.0
2017-Sep-17 23:31N 27°56' W 082°26'0 0.0
2017-Sep-17 23:01N 27°56' W 082°26'0 0.0
2017-Sep-17 22:31N 27°56' W 082°26'0 0.0
2017-Sep-17 22:01N 27°56' W 082°26'0 0.0
2017-Sep-17 21:30N 27°56' W 082°26'0 0.0
2017-Sep-17 21:00N 27°56' W 082°26'0 0.0
2017-Sep-17 20:31N 27°56' W 082°26'0 0.0
2017-Sep-17 20:01N 27°56' W 082°26'0 0.0
2017-Sep-17 19:31N 27°56' W 082°26'0 0.0
2017-Sep-17 19:01N 27°56' W 082°26'0 0.0
2017-Sep-17 18:31N 27°56' W 082°26'0 0.0
2017-Sep-17 18:01N 27°56' W 082°26'0 0.0
2017-Sep-17 17:31N 27°56' W 082°26'0 0.0
2017-Sep-17 17:00N 27°56' W 082°26'0 0.0
2017-Sep-17 16:31N 27°56' W 082°26'0 0.1
2017-Sep-17 16:00N 27°56' W 082°26'0 0.1
2017-Sep-17 15:30N 27°56' W 082°26'1 3.0
2017-Sep-17 15:00N 27°54' W 082°26'1 1.1
2017-Sep-17 14:30N 27°54' W 082°25'0 0.0
2017-Sep-17 14:00N 27°54' W 082°25'0 0.0
2017-Sep-17 13:30N 27°54' W 082°25'0 0.0
2017-Sep-17 13:00N 27°54' W 082°25'0 0.1
2017-Sep-17 12:30N 27°54' W 082°25'1 1.5
2017-Sep-17 12:00N 27°54' W 082°26'1 2.5
2017-Sep-17 11:30N 27°56' W 082°26'0 0.0
2017-Sep-17 11:01N 27°56' W 082°26'0 0.0
2017-Sep-17 10:30N 27°56' W 082°26'0 0.0
2017-Sep-17 10:00N 27°56' W 082°26'0 0.0
2017-Sep-17 09:31N 27°56' W 082°26'0 0.0
2017-Sep-17 09:01N 27°56' W 082°26'0 0.0
2017-Sep-17 08:31N 27°56' W 082°26'0 0.0
2017-Sep-17 08:01N 27°56' W 082°26'0 0.0
2017-Sep-17 07:30N 27°56' W 082°26'0 0.0
2017-Sep-17 07:00N 27°56' W 082°26'0 0.0
2017-Sep-17 06:30N 27°56' W 082°26'0 0.0
2017-Sep-17 06:00N 27°56' W 082°26'0 0.0
2017-Sep-17 05:30N 27°56' W 082°26'1 1.1
2017-Sep-17 05:00N 27°55' W 082°26'1 1.9
2017-Sep-17 04:30N 27°54' W 082°26'1 1.6
2017-Sep-17 03:55N 27°55' W 082°26'0 0.0
2017-Sep-17 03:28N 27°55' W 082°26'0 0.0
2017-Sep-17 02:58N 27°55' W 082°26'0 0.0
2017-Sep-17 02:28N 27°55' W 082°26'0 0.0
2017-Sep-17 01:58N 27°55' W 082°26'0 0.0
2017-Sep-17 01:31N 27°55' W 082°26'0 0.0
2017-Sep-17 01:00N 27°55' W 082°26'1 1.7
2017-Sep-17 00:31N 27°54' W 082°26'1 1.2
2017-Sep-17 00:00N 27°54' W 082°25'0 0.0
2017-Sep-16 23:30N 27°54' W 082°25'0 0.0
2017-Sep-16 23:01N 27°54' W 082°25'0 0.0
2017-Sep-16 22:30N 27°54' W 082°25'0 0.0
2017-Sep-16 22:01N 27°54' W 082°25'2 3.3
2017-Sep-16 21:30N 27°56' W 082°26'0 0.0
2017-Sep-16 21:00N 27°56' W 082°26'0 0.0
2017-Sep-16 20:30N 27°56' W 082°26'0 0.0
2017-Sep-16 20:00N 27°56' W 082°26'0 0.0
2017-Sep-16 19:30N 27°56' W 082°26'0 0.0
2017-Sep-16 19:00N 27°56' W 082°26'0 0.0
2017-Sep-16 18:30N 27°56' W 082°26'0 0.0
2017-Sep-16 18:00N 27°56' W 082°26'2 3.3
2017-Sep-16 17:30N 27°54' W 082°25'2 4.0
2017-Sep-16 17:00N 27°55' W 082°27'1 2.9
2017-Sep-16 16:30N 27°57' W 082°27'0 0.0
2017-Sep-16 16:00N 27°57' W 082°27'0 0.0
2017-Sep-16 15:30N 27°57' W 082°27'0 0.0
2017-Sep-16 15:00N 27°57' W 082°27'0 0.1
2017-Sep-16 14:30N 27°57' W 082°27'1 1.6
2017-Sep-16 14:00N 27°56' W 082°27'2 4.0
2017-Sep-16 13:30N 27°54' W 082°26'1 1.4
2017-Sep-16 13:00N 27°54' W 082°25'2 3.1
2017-Sep-16 12:30N 27°56' W 082°26'0 0.0
2017-Sep-16 12:00N 27°56' W 082°26'0 0.0
2017-Sep-16 11:30N 27°56' W 082°26'0 0.0
2017-Sep-16 11:01N 27°56' W 082°26'0 0.0
2017-Sep-16 10:30N 27°56' W 082°26'0 0.0
2017-Sep-16 10:00N 27°56' W 082°26'0 0.0
2017-Sep-16 09:31N 27°56' W 082°26'  

Dump ship's entire track history